Time;durP1;ratioP1;P1;durP2;ratioP2;P2;SDS_P1;SDS_P2;PMS_P1;PMS_P2;Temp;Humidity;BMP_temperature;BMP_pressure;BME280_temperature;BME280_humidity;BME280_pressure;Samples;Min_cycle;Max_cycle;Signal;HPM_P1;HPM_P2
2024/01/10 00:00:22;;;;;;;13.93;9.97;;;;;;;0.05;48.33;99653.84;6725843;29;20361;-81
2024/01/10 00:03:44;;;;;;;18.07;11.17;;;;;;;0.37;48.46;99657.44;6737046;29;20240;-81
2024/01/10 00:07:06;;;;;;;16.43;11.03;;;;;;;0.47;47.33;99673.47;6736477;29;20263;-80
2024/01/10 00:10:29;;;;;;;15.97;10.33;;;;;;;0.52;47.84;99656.25;6730972;29;20260;-80
2024/01/10 00:13:50;;;;;;;16.80;11.90;;;;;;;0.50;47.43;99655.53;6732091;29;20247;-81
2024/01/10 00:17:12;;;;;;;19.00;11.33;;;;;;;0.50;47.25;99629.03;6727870;29;20314;-80
2024/01/10 00:20:33;;;;;;;18.63;10.93;;;;;;;0.57;46.81;99655.88;6733985;29;20227;-81
2024/01/10 00:23:55;;;;;;;19.40;10.87;;;;;;;0.79;45.96;99640.78;6734092;29;20234;-80
2024/01/10 00:27:18;;;;;;;19.53;11.60;;;;;;;0.49;47.17;99629.94;6730556;29;20315;-81
2024/01/10 00:30:40;;;;;;;18.00;11.50;;;;;;;0.45;48.32;99651.56;6740051;29;20212;-80
2024/01/10 00:34:01;;;;;;;20.10;11.27;;;;;;;0.32;49.14;99642.88;6732910;29;21038;-80
2024/01/10 00:37:23;;;;;;;19.40;11.53;;;;;;;0.39;48.64;99634.31;6725646;29;20236;-80
2024/01/10 00:40:44;;;;;;;17.80;11.63;;;;;;;0.34;49.31;99648.91;6733605;29;20245;-81
2024/01/10 00:44:07;;;;;;;18.47;10.93;;;;;;;0.24;49.77;99632.03;6733336;29;20227;-80
2024/01/10 00:47:29;;;;;;;17.53;11.40;;;;;;;-0.42;49.93;99564.88;6732776;29;20247;-80
2024/01/10 00:50:51;;;;;;;16.47;10.27;;;;;;;0.32;49.02;99598.66;6733478;29;20368;-81
2024/01/10 00:54:12;;;;;;;15.23;11.07;;;;;;;0.34;48.96;99623.22;6733541;29;20260;-81
2024/01/10 00:57:34;;;;;;;17.73;11.87;;;;;;;0.63;48.18;99632.38;6732978;29;20327;-81
2024/01/10 01:00:57;;;;;;;17.87;11.80;;;;;;;0.41;48.17;99635.03;6732955;29;20245;-81
2024/01/10 01:04:18;;;;;;;17.37;11.67;;;;;;;0.34;48.95;99622.38;6733352;29;20216;-80
2024/01/10 01:07:40;;;;;;;16.47;10.77;;;;;;;-0.14;49.89;99646.59;6733876;29;20322;-80
2024/01/10 01:11:02;;;;;;;17.40;11.50;;;;;;;0.20;50.02;99649.16;6732861;29;20273;-81
2024/01/10 01:14:23;;;;;;;22.40;12.63;;;;;;;0.66;48.83;99644.56;6724782;29;20300;-80
2024/01/10 01:17:46;;;;;;;15.67;11.93;;;;;;;0.62;48.97;99649.25;6733079;29;20373;-82
2024/01/10 01:21:07;;;;;;;18.23;12.00;;;;;;;0.65;48.88;99650.81;6733750;29;20281;-82
2024/01/10 01:24:29;;;;;;;18.03;10.63;;;;;;;0.15;49.91;99652.16;6724213;29;20313;-82
2024/01/10 01:27:50;;;;;;;16.97;11.13;;;;;;;0.36;50.03;99666.38;6732753;29;20667;-82
2024/01/10 01:31:12;;;;;;;16.13;11.67;;;;;;;0.68;49.59;99664.69;6733680;29;20228;-82
2024/01/10 01:34:35;;;;;;;16.70;11.17;;;;;;;-0.07;50.19;99608.88;6734530;29;20251;-81
2024/01/10 01:37:57;;;;;;;18.83;11.60;;;;;;;0.68;49.46;99663.84;6734633;29;20713;-81
2024/01/10 01:41:19;;;;;;;13.27;10.33;;;;;;;0.51;50.11;99654.56;6733530;29;20336;-81
2024/01/10 01:44:40;;;;;;;13.70;10.40;;;;;;;0.29;49.96;99613.94;6746689;29;20252;-81
2024/01/10 01:48:02;;;;;;;15.60;11.37;;;;;;;0.76;49.17;99625.09;6736439;29;20248;-80
2024/01/10 01:51:27;;;;;;;16.57;11.33;;;;;;;0.08;49.33;99583.84;6735566;29;20623;-80
2024/01/10 01:54:49;;;;;;;14.23;11.10;;;;;;;0.77;49.36;99637.41;6734757;29;20592;-80
2024/01/10 01:58:11;;;;;;;16.90;11.33;;;;;;;0.85;49.48;99639.44;6735052;29;20315;-80
2024/01/10 02:01:33;;;;;;;17.83;11.03;;;;;;;0.73;49.15;99651.88;6735336;29;20265;-81
2024/01/10 02:04:55;;;;;;;14.30;10.87;;;;;;;0.99;48.97;99650.63;6736157;29;20364;-82
2024/01/10 02:08:18;;;;;;;16.63;11.47;;;;;;;0.88;48.88;99628.56;6734713;29;20267;-80
2024/01/10 02:11:40;;;;;;;16.83;10.80;;;;;;;1.05;48.37;99626.22;6734651;29;20209;-81
2024/01/10 02:15:03;;;;;;;22.20;11.10;;;;;;;0.60;49.13;99624.63;6735823;29;20220;-80
2024/01/10 02:18:25;;;;;;;18.43;11.63;;;;;;;0.69;49.19;99617.75;6734709;29;20236;-80
2024/01/10 02:21:46;;;;;;;14.53;11.03;;;;;;;0.29;50.08;99622.75;6734772;29;20221;-81
2024/01/10 02:25:10;;;;;;;19.10;12.37;;;;;;;0.55;50.13;99632.13;6734185;29;20204;-80
2024/01/10 02:28:31;;;;;;;20.17;11.93;;;;;;;0.38;50.27;99613.22;6733897;29;20262;-81
2024/01/10 02:31:53;;;;;;;17.40;10.50;;;;;;;0.54;49.97;99621.66;6734822;29;20301;-80
2024/01/10 02:35:14;;;;;;;18.67;12.00;;;;;;;0.49;49.73;99619.34;6735072;29;20216;-81
2024/01/10 02:38:36;;;;;;;17.23;11.37;;;;;;;0.66;50.29;99628.63;6735010;29;20228;-81
2024/01/10 02:42:04;;;;;;;16.13;10.90;;;;;;;0.29;49.67;99587.41;6734050;29;20360;-81
2024/01/10 02:45:25;;;;;;;16.40;10.90;;;;;;;0.89;48.80;99624.97;6732879;29;20240;-81
2024/01/10 02:48:47;;;;;;;16.40;10.83;;;;;;;0.83;49.61;99610.34;6732794;29;20331;-81
2024/01/10 02:52:08;;;;;;;16.80;10.93;;;;;;;0.43;50.65;99619.00;6733456;29;20216;-81
2024/01/10 02:55:30;;;;;;;18.47;11.10;;;;;;;0.72;49.82;99612.22;6733174;29;20247;-80
2024/01/10 02:58:53;;;;;;;16.93;10.27;;;;;;;0.52;50.96;99610.31;6733591;29;20235;-81
2024/01/10 03:02:15;;;;;;;15.07;10.50;;;;;;;0.56;50.26;99609.97;6733825;29;20297;-81
2024/01/10 03:05:37;;;;;;;17.67;10.40;;;;;;;0.52;50.25;99587.28;6734247;29;20211;-79
2024/01/10 03:08:59;;;;;;;18.10;10.77;;;;;;;0.59;50.82;99611.53;6711500;29;20248;-80
2024/01/10 03:12:21;;;;;;;19.53;12.03;;;;;;;0.51;50.22;99572.34;6734216;29;20305;-80
2024/01/10 03:15:43;;;;;;;18.57;11.40;;;;;;;0.69;49.83;99593.88;6739799;29;20236;-81
2024/01/10 03:19:05;;;;;;;19.83;11.23;;;;;;;0.92;49.67;99606.13;6733244;29;20877;-80
2024/01/10 03:22:26;;;;;;;22.30;13.33;;;;;;;0.99;49.18;99602.84;6732248;29;20220;-80
2024/01/10 03:25:49;;;;;;;18.83;11.97;;;;;;;1.03;49.17;99612.25;6731195;29;20250;-78
2024/01/10 03:29:10;;;;;;;17.30;10.80;;;;;;;1.19;48.82;99586.09;6744725;29;20238;-79
2024/01/10 03:32:34;;;;;;;16.90;10.70;;;;;;;1.22;47.61;99593.81;6753060;29;20762;-79
2024/01/10 03:35:55;;;;;;;23.17;13.47;;;;;;;1.17;47.37;99585.38;6754334;29;20314;-78
2024/01/10 03:39:17;;;;;;;19.00;11.87;;;;;;;1.29;47.12;99592.34;6756778;29;20247;-80
2024/01/10 03:42:38;;;;;;;25.70;14.27;;;;;;;1.41;45.69;99586.00;6757414;29;20703;-80
2024/01/10 03:46:00;;;;;;;19.47;11.80;;;;;;;1.54;45.27;99585.81;6749994;29;20256;-79
2024/01/10 03:49:22;;;;;;;21.53;14.03;;;;;;;1.54;45.04;99576.00;6735850;29;20368;-79
2024/01/10 03:52:44;;;;;;;22.80;13.30;;;;;;;1.71;43.25;99596.69;6735220;29;20302;-80
2024/01/10 03:56:06;;;;;;;28.87;13.67;;;;;;;1.26;42.08;99587.25;6734909;29;20208;-80
2024/01/10 03:59:28;;;;;;;25.83;13.57;;;;;;;1.10;43.11;99588.66;6738460;29;20620;-79
2024/01/10 04:02:49;;;;;;;16.67;11.27;;;;;;;1.22;42.87;99587.66;6740523;29;20220;-80
2024/01/10 04:06:12;;;;;;;16.33;11.13;;;;;;;1.52;43.06;99562.03;6733277;29;20296;-80
2024/01/10 04:09:34;;;;;;;23.80;14.13;;;;;;;1.51;42.61;99578.94;6734288;29;20310;-80
2024/01/10 04:12:55;;;;;;;19.37;11.70;;;;;;;1.04;42.23;99595.34;6733646;29;20221;-80
2024/01/10 04:16:17;;;;;;;17.77;10.53;;;;;;;1.38;43.58;99586.25;6734770;29;20272;-80
2024/01/10 04:19:39;;;;;;;24.10;14.30;;;;;;;1.66;42.49;99574.97;6733072;29;20681;-80
2024/01/10 04:23:03;;;;;;;23.27;13.03;;;;;;;1.26;42.33;99589.09;6733205;29;20243;-80
2024/01/10 04:26:25;;;;;;;24.40;14.30;;;;;;;1.71;42.51;99593.19;6732618;29;20323;-80
2024/01/10 04:29:46;;;;;;;18.97;12.13;;;;;;;1.54;42.41;99596.44;6733541;29;20212;-80
2024/01/10 04:33:08;;;;;;;15.73;11.23;;;;;;;1.96;42.45;99598.09;6732807;29;20369;-82
2024/01/10 04:36:29;;;;;;;17.80;10.83;;;;;;;2.00;42.28;99568.44;6732609;29;20284;-80
2024/01/10 04:39:52;;;;;;;14.57;9.47;;;;;;;2.00;42.54;99595.03;6735501;29;20717;-81
2024/01/10 04:43:14;;;;;;;16.33;9.47;;;;;;;1.93;42.54;99569.09;6733887;29;20213;-80
2024/01/10 04:46:36;;;;;;;18.50;11.23;;;;;;;2.15;42.90;99587.53;6733985;29;20232;-80
2024/01/10 04:50:05;;;;;;;15.17;10.73;;;;;;;2.15;42.96;99575.09;6742095;29;20354;-81
2024/01/10 04:53:26;;;;;;;16.57;9.97;;;;;;;1.93;44.76;99561.97;6705834;29;20303;-80
2024/01/10 04:56:49;;;;;;;17.97;11.10;;;;;;;2.32;44.11;99584.25;6734486;29;20224;-82
2024/01/10 05:00:12;;;;;;;16.60;10.77;;;;;;;2.36;43.91;99580.34;6735000;29;20219;-81
2024/01/10 05:03:33;;;;;;;16.40;11.03;;;;;;;2.15;44.81;99579.56;6733987;29;20279;-80
2024/01/10 05:06:55;;;;;;;18.03;11.27;;;;;;;2.28;45.17;99575.69;6719608;29;20243;-80
2024/01/10 05:10:16;;;;;;;17.03;11.37;;;;;;;2.48;43.88;99585.41;6741440;29;20251;-81
2024/01/10 05:13:39;;;;;;;23.07;12.07;;;;;;;2.34;43.07;99580.47;6742136;29;20212;-80
2024/01/10 05:17:01;;;;;;;16.40;10.90;;;;;;;2.42;43.44;99591.28;6736632;29;20224;-80
2024/01/10 05:20:22;;;;;;;17.77;10.90;;;;;;;2.40;43.74;99582.59;6732090;29;20606;-80
2024/01/10 05:23:44;;;;;;;17.53;11.03;;;;;;;2.40;43.50;99584.41;6732811;29;20741;-81
2024/01/10 05:27:08;;;;;;;18.27;10.97;;;;;;;2.40;43.39;99581.75;6733897;29;20602;-80
2024/01/10 05:30:31;;;;;;;18.77;10.63;;;;;;;2.33;44.27;99583.28;6726971;29;20307;-80
2024/01/10 05:33:53;;;;;;;17.33;11.80;;;;;;;2.29;43.35;99579.19;6734832;29;20954;-81
2024/01/10 05:37:15;;;;;;;19.43;11.60;;;;;;;2.44;42.00;99581.38;6733762;29;20296;-84
2024/01/10 05:40:37;;;;;;;18.37;11.17;;;;;;;2.02;42.95;99602.88;6735089;29;20227;-80
2024/01/10 05:43:59;;;;;;;17.00;11.50;;;;;;;1.87;43.39;99574.94;6734413;29;20641;-80
2024/01/10 05:47:21;;;;;;;15.03;9.93;;;;;;;2.20;41.92;99583.50;6732913;29;20229;-81
2024/01/10 05:50:43;;;;;;;15.07;10.60;;;;;;;1.97;42.70;99589.13;6729544;29;20709;-81
2024/01/10 05:54:11;;;;;;;19.67;12.83;;;;;;;0.62;44.43;99558.19;6731856;29;20240;-80
2024/01/10 05:57:34;;;;;;;19.70;12.23;;;;;;;1.26;44.02;99591.75;6724583;29;20304;-80
2024/01/10 06:00:55;;;;;;;17.60;11.10;;;;;;;1.26;43.53;99583.78;6733237;29;20239;-81
2024/01/10 06:04:18;;;;;;;69.10;28.70;;;;;;;1.59;43.62;99583.63;6732567;29;20706;-80
2024/01/10 06:07:41;;;;;;;26.27;16.27;;;;;;;1.57;44.01;99585.53;6731985;29;20928;-81
2024/01/10 06:11:06;;;;;;;19.43;12.00;;;;;;;1.68;43.04;99588.97;6738478;29;20207;-81
2024/01/10 06:14:27;;;;;;;21.30;12.33;;;;;;;1.28;44.33;99603.06;6729629;29;20228;-80
2024/01/10 06:17:49;;;;;;;16.00;11.47;;;;;;;1.60;43.67;99585.28;6729669;29;20377;-81
2024/01/10 06:21:12;;;;;;;19.90;12.33;;;;;;;1.62;43.83;99583.34;6730321;29;20220;-81
2024/01/10 06:24:34;;;;;;;19.63;12.67;;;;;;;1.98;43.27;99604.97;6730984;29;20244;-80
2024/01/10 06:27:56;;;;;;;17.77;11.37;;;;;;;1.90;43.44;99607.41;6725763;29;20259;-80
2024/01/10 06:31:17;;;;;;;17.50;11.10;;;;;;;2.28;43.38;99601.44;6731109;29;20351;-81
2024/01/10 06:34:39;;;;;;;18.90;12.57;;;;;;;2.44;44.69;99601.81;6743168;29;20299;-81
2024/01/10 06:38:03;;;;;;;16.93;11.23;;;;;;;2.58;43.91;99607.59;6730092;29;20642;-81
2024/01/10 06:41:25;;;;;;;18.17;11.97;;;;;;;2.48;45.19;99605.88;6730846;29;20212;-81
2024/01/10 06:44:46;;;;;;;19.87;12.87;;;;;;;2.14;45.36;99593.84;6730864;29;20344;-81
2024/01/10 06:48:08;;;;;;;18.80;12.40;;;;;;;1.15;46.33;99618.34;6733916;29;20239;-81
2024/01/10 06:51:30;;;;;;;19.13;12.77;;;;;;;1.90;43.56;99604.75;6730237;29;20348;-81
2024/01/10 06:54:52;;;;;;;18.90;12.87;;;;;;;1.91;44.00;99613.59;6731414;29;20269;-81
2024/01/10 06:58:16;;;;;;;21.30;11.97;;;;;;;2.10;43.04;99592.41;6735977;29;20656;-81
2024/01/10 07:01:39;;;;;;;18.37;12.23;;;;;;;2.02;43.18;99590.41;6740352;29;20295;-80
2024/01/10 07:05:00;;;;;;;19.50;11.93;;;;;;;1.86;43.79;99602.50;6732070;29;20219;-81
2024/01/10 07:08:22;;;;;;;18.20;12.63;;;;;;;1.69;43.98;99613.72;6729859;29;20267;-81
2024/01/10 07:11:45;;;;;;;16.63;12.23;;;;;;;2.07;43.72;99617.44;6731043;29;20577;-80
2024/01/10 07:15:07;;;;;;;22.97;13.47;;;;;;;1.99;43.37;99600.47;6731195;29;20611;-80
2024/01/10 07:18:29;;;;;;;20.53;13.20;;;;;;;2.26;43.40;99616.72;6730362;29;20240;-80
2024/01/10 07:21:51;;;;;;;22.33;13.23;;;;;;;2.44;43.83;99626.59;6735034;29;20246;-80
2024/01/10 07:25:14;;;;;;;21.23;12.83;;;;;;;2.56;43.44;99638.84;6736225;29;20678;-80
2024/01/10 07:28:38;;;;;;;22.77;11.80;;;;;;;2.65;43.27;99631.88;6733640;29;20945;-80
2024/01/10 07:31:59;;;;;;;21.50;13.30;;;;;;;2.54;42.65;99611.50;6734731;29;20212;-80
2024/01/10 07:35:21;;;;;;;21.23;12.87;;;;;;;2.29;43.25;99611.97;6734978;29;20219;-80
2024/01/10 07:38:42;;;;;;;20.43;11.93;;;;;;;2.37;42.79;99624.59;6736366;29;20252;-80
2024/01/10 07:42:06;;;;;;;18.03;12.03;;;;;;;2.51;42.38;99629.56;6735874;29;20269;-81
2024/01/10 07:45:29;;;;;;;24.63;12.73;;;;;;;2.43;42.86;99627.56;6735473;29;20251;-81
2024/01/10 07:48:50;;;;;;;22.43;13.43;;;;;;;1.95;44.62;99617.69;6742569;29;20233;-81
2024/01/10 07:52:12;;;;;;;22.37;13.80;;;;;;;2.18;45.13;99638.66;6734985;29;20271;-80
2024/01/10 07:55:34;;;;;;;22.30;14.20;;;;;;;2.05;45.48;99653.13;6735161;29;20220;-80
2024/01/10 07:58:56;;;;;;;17.90;13.20;;;;;;;2.48;44.74;99651.94;6735634;29;20656;-80
2024/01/10 08:02:19;;;;;;;21.03;12.93;;;;;;;2.55;44.87;99661.09;6738474;29;20219;-81
2024/01/10 08:05:40;;;;;;;25.03;14.10;;;;;;;1.95;45.52;99654.91;6742985;29;20237;-80
2024/01/10 08:09:04;;;;;;;25.77;14.50;;;;;;;1.24;48.21;99684.81;6734433;29;20330;-81
2024/01/10 08:12:29;;;;;;;22.00;14.30;;;;;;;2.23;47.41;99662.19;6735566;29;20216;-79
2024/01/10 08:15:50;;;;;;;23.20;14.10;;;;;;;2.20;47.25;99665.13;6735867;29;20311;-81
2024/01/10 08:19:13;;;;;;;22.87;14.50;;;;;;;2.64;46.36;99662.09;6736037;29;20327;-80
2024/01/10 08:22:35;;;;;;;18.97;14.20;;;;;;;2.81;45.99;99674.78;6725133;29;20217;-81
2024/01/10 08:25:56;;;;;;;24.47;15.47;;;;;;;2.54;46.48;99675.38;6738599;29;20336;-81
2024/01/10 08:29:18;;;;;;;28.60;15.30;;;;;;;2.93;46.27;99668.34;6733201;29;20734;-80
2024/01/10 08:32:40;;;;;;;23.93;15.77;;;;;;;2.78;46.60;99680.38;6735629;29;20208;-81
2024/01/10 08:36:04;;;;;;;26.07;17.00;;;;;;;3.01;45.03;99632.06;6734190;29;20212;-81
2024/01/10 08:39:28;;;;;;;27.37;17.17;;;;;;;3.10;45.30;99660.56;6745894;29;20215;-81
2024/01/10 08:42:50;;;;;;;22.67;15.33;;;;;;;3.69;43.58;99679.97;6734577;29;20211;-81
2024/01/10 08:46:11;;;;;;;22.27;14.73;;;;;;;4.59;41.40;99690.03;6740415;29;20208;-81
2024/01/10 08:49:36;;;;;;;20.50;12.80;;;;;;;5.79;37.92;99651.28;6732382;29;20762;-81
2024/01/10 08:52:59;;;;;;;20.90;13.67;;;;;;;6.66;36.01;99663.63;6732784;29;20220;-81
2024/01/10 08:56:20;;;;;;;21.20;13.67;;;;;;;7.10;34.90;99673.22;6733388;29;20273;-80
2024/01/10 08:59:44;;;;;;;20.73;13.77;;;;;;;6.96;34.55;99671.16;6733643;29;20281;-81
2024/01/10 09:03:07;;;;;;;19.87;13.33;;;;;;;6.46;35.76;99678.28;6742318;29;20206;-81
2024/01/10 09:06:28;;;;;;;23.90;14.23;;;;;;;6.11;36.57;99680.19;6732058;29;20262;-80
2024/01/10 09:09:51;;;;;;;22.67;14.77;;;;;;;5.34;37.41;99689.78;6733452;29;20274;-81
2024/01/10 09:13:13;;;;;;;22.80;13.77;;;;;;;5.43;37.44;99695.06;6733323;29;20378;-80
2024/01/10 09:16:35;;;;;;;21.23;14.37;;;;;;;5.20;37.72;99679.63;6732914;29;20260;-81
2024/01/10 09:19:58;;;;;;;28.83;15.70;;;;;;;4.64;38.53;99677.09;6733046;29;20211;-81
2024/01/10 09:23:19;;;;;;;23.87;15.03;;;;;;;4.74;39.55;99695.75;6732542;29;20213;-81
2024/01/10 09:26:46;;;;;;;23.07;15.10;;;;;;;4.82;38.75;99678.00;6736133;29;20272;-81
2024/01/10 09:30:09;;;;;;;24.00;14.60;;;;;;;4.87;38.41;99657.03;6733273;29;20296;-81
2024/01/10 09:33:34;;;;;;;25.67;16.43;;;;;;;4.96;37.77;99642.75;6732566;29;20269;-81
2024/01/10 09:36:56;;;;;;;23.87;15.73;;;;;;;5.17;37.94;99702.16;6732041;29;20729;-81
2024/01/10 09:40:18;;;;;;;26.40;15.50;;;;;;;5.39;37.47;99692.84;6733330;29;20220;-80
2024/01/10 09:43:41;;;;;;;28.53;16.70;;;;;;;5.58;37.23;99706.09;6733483;29;20217;-82
2024/01/10 09:47:03;;;;;;;26.80;15.77;;;;;;;5.43;37.59;99713.78;6731453;29;20237;-81
2024/01/10 09:50:26;;;;;;;22.90;15.33;;;;;;;5.48;36.62;99702.66;6731906;29;20287;-81
2024/01/10 09:53:51;;;;;;;24.23;15.93;;;;;;;5.60;37.73;99710.31;6732558;29;20208;-82
2024/01/10 09:57:12;;;;;;;22.90;15.43;;;;;;;5.55;37.51;99715.25;6732721;29;20229;-82
2024/01/10 10:00:36;;;;;;;25.37;16.83;;;;;;;5.75;36.88;99683.84;6732660;29;20947;-81
2024/01/10 10:03:58;;;;;;;25.90;16.53;;;;;;;5.95;36.57;99712.19;6732824;29;20245;-81
2024/01/10 10:07:20;;;;;;;26.80;17.50;;;;;;;5.39;36.43;99701.75;6742707;29;20230;-80
2024/01/10 10:10:44;;;;;;;23.63;15.77;;;;;;;5.42;37.46;99685.38;6733025;29;20265;-81
2024/01/10 10:14:15;;;;;;;26.80;15.73;;;;;;;5.60;37.34;99699.59;6732213;29;20204;-81
2024/01/10 10:17:44;;;;;;;23.10;16.17;;;;;;;6.14;36.61;99682.56;6706082;29;20237;-81
2024/01/10 10:21:11;;;;;;;27.73;16.57;;;;;;;6.15;36.55;99685.09;6715404;29;20295;-81
2024/01/10 10:24:32;;;;;;;23.03;16.20;;;;;;;5.88;36.53;99685.19;6731707;29;20214;-81
2024/01/10 10:27:54;;;;;;;25.93;17.20;;;;;;;5.12;37.68;99682.22;6730891;29;20237;-81
2024/01/10 10:31:16;;;;;;;28.60;17.93;;;;;;;6.03;37.17;99683.66;6713009;29;20277;-81
2024/01/10 10:34:44;;;;;;;27.23;17.93;;;;;;;6.07;36.17;99682.34;6705685;29;20361;-81
2024/01/10 10:38:05;;;;;;;26.47;16.10;;;;;;;6.44;36.28;99676.75;6727017;29;20229;-81
2024/01/10 10:41:28;;;;;;;24.77;16.10;;;;;;;6.45;35.94;99668.56;6731873;29;20292;-81
2024/01/10 10:44:51;;;;;;;28.97;18.07;;;;;;;6.76;35.04;99672.41;6735639;29;20293;-81
2024/01/10 10:48:13;;;;;;;27.87;18.43;;;;;;;6.64;35.91;99654.94;6738331;29;20261;-82
2024/01/10 10:51:37;;;;;;;26.33;17.67;;;;;;;7.33;34.65;99668.94;6731741;29;20229;-81
2024/01/10 10:54:59;;;;;;;23.03;16.07;;;;;;;6.67;34.74;99667.16;6731925;29;20295;-81
2024/01/10 10:58:21;;;;;;;29.13;17.53;;;;;;;5.49;37.28;99670.41;6731707;29;20626;-82
2024/01/10 11:01:48;;;;;;;29.77;18.03;;;;;;;6.42;35.64;99634.03;6731721;29;20214;-82
2024/01/10 11:05:10;;;;;;;30.07;18.67;;;;;;;6.64;36.13;99662.97;6731058;29;20270;-81
2024/01/10 11:08:36;;;;;;;24.73;16.77;;;;;;;7.49;34.25;99670.81;6703977;29;20268;-82
2024/01/10 11:12:10;;;;;;;28.30;18.40;;;;;;;7.45;34.21;99666.78;6731416;29;20912;-82
2024/01/10 11:16:10;;;;;;;25.03;16.77;;;;;;;7.65;34.22;99662.78;6732267;29;20195;-82
2024/01/10 11:19:52;;;;;;;26.53;17.67;;;;;;;6.79;34.63;99674.75;6731086;29;20273;-82
2024/01/10 11:23:29;;;;;;;28.57;18.73;;;;;;;6.72;35.37;99651.47;6732887;29;20244;-82
2024/01/10 11:27:08;;;;;;;29.23;17.40;;;;;;;6.70;36.10;99643.56;6731602;29;20390;-82
2024/01/10 11:30:37;;;;;;;27.77;18.63;;;;;;;6.27;36.50;99673.13;6731719;29;20308;-82
2024/01/10 11:34:00;;;;;;;28.07;17.97;;;;;;;6.48;37.29;99664.72;6731650;29;20268;-82
2024/01/10 11:37:21;;;;;;;27.80;17.47;;;;;;;7.22;35.88;99646.94;6730115;29;20583;-82
2024/01/10 11:40:50;;;;;;;27.60;17.13;;;;;;;7.25;34.06;99639.41;6731369;29;20365;-84
2024/01/10 11:44:32;;;;;;;28.63;19.27;;;;;;;6.91;36.10;99643.16;6730705;29;20241;-82
2024/01/10 11:47:54;;;;;;;25.53;17.83;;;;;;;7.42;35.23;99643.81;6726984;29;20327;-81
2024/01/10 11:51:16;;;;;;;26.43;17.13;;;;;;;7.22;35.23;99660.34;6730096;29;20269;-83
2024/01/10 11:54:42;;;;;;;28.10;17.83;;;;;;;7.23;35.79;99646.78;6733731;29;20210;-81
2024/01/10 11:58:09;;;;;;;26.53;17.47;;;;;;;6.46;35.97;99648.81;6732374;29;20237;-82
2024/01/10 12:01:33;;;;;;;30.77;18.43;;;;;;;6.65;36.64;99637.00;6733428;29;20573;-82
2024/01/10 12:04:55;;;;;;;27.80;18.67;;;;;;;6.76;36.62;99644.75;6732833;29;20322;-81
2024/01/10 12:08:16;;;;;;;29.20;19.13;;;;;;;4.63;39.86;99648.72;6734556;29;20322;-81
2024/01/10 12:11:40;;;;;;;26.97;17.63;;;;;;;5.16;40.00;99663.03;6736818;29;20709;-81
2024/01/10 12:15:01;;;;;;;28.10;18.20;;;;;;;4.87;40.91;99657.03;6736359;29;20637;-80
2024/01/10 12:18:24;;;;;;;28.60;18.60;;;;;;;5.72;39.39;99663.59;6736648;29;20275;-80
2024/01/10 12:21:47;;;;;;;33.17;19.47;;;;;;;6.24;38.33;99652.00;6738559;29;20310;-81
2024/01/10 12:25:09;;;;;;;32.33;20.00;;;;;;;5.93;38.58;99645.44;6745903;29;20753;-81
2024/01/10 12:28:31;;;;;;;27.80;18.90;;;;;;;5.84;38.64;99637.50;6739825;29;20240;-81
2024/01/10 12:31:53;;;;;;;27.40;18.10;;;;;;;5.82;38.48;99643.00;6738380;29;20210;-81
2024/01/10 12:35:20;;;;;;;29.87;19.50;;;;;;;5.71;38.83;99613.78;6737419;29;20600;-81
2024/01/10 12:38:42;;;;;;;30.33;18.63;;;;;;;5.87;38.83;99643.38;6738451;29;20240;-81
2024/01/10 12:42:07;;;;;;;30.43;18.57;;;;;;;5.58;38.64;99624.03;6737458;29;20304;-80
2024/01/10 12:45:28;;;;;;;25.17;17.97;;;;;;;6.00;38.84;99635.78;6736469;29;20220;-81
2024/01/10 12:49:02;;;;;;;27.30;19.23;;;;;;;6.10;37.82;99627.63;6738886;29;20247;-81
2024/01/10 12:52:25;;;;;;;28.43;19.40;;;;;;;6.50;38.30;99625.22;6739016;29;20196;-81
2024/01/10 12:55:47;;;;;;;27.43;18.80;;;;;;;6.72;37.38;99638.06;6737255;29;20213;-81
2024/01/10 12:59:10;;;;;;;31.00;19.10;;;;;;;6.24;38.35;99622.56;6737647;29;20303;-80
2024/01/10 13:02:34;;;;;;;34.37;20.40;;;;;;;6.59;37.65;99634.97;6738774;29;20288;-81
2024/01/10 13:05:56;;;;;;;30.77;20.63;;;;;;;6.05;38.54;99621.91;6738747;29;20578;-81
2024/01/10 13:09:19;;;;;;;31.57;19.73;;;;;;;6.76;37.26;99624.16;6738436;29;20767;-81
2024/01/10 13:12:42;;;;;;;32.77;19.30;;;;;;;6.96;37.03;99641.66;6741232;29;20298;-81
2024/01/10 13:16:03;;;;;;;27.83;18.67;;;;;;;6.96;37.19;99627.44;6738833;29;20226;-80
2024/01/10 13:19:26;;;;;;;31.63;20.10;;;;;;;6.16;39.08;99641.25;6741532;29;20294;-81
2024/01/10 13:22:47;;;;;;;28.30;18.33;;;;;;;6.18;38.15;99630.41;6749750;29;20224;-80
2024/01/10 13:26:11;;;;;;;28.93;18.87;;;;;;;6.90;37.24;99614.69;6743351;29;20213;-85
2024/01/10 13:29:32;;;;;;;30.67;18.63;;;;;;;6.60;37.83;99621.41;6746783;29;20242;-80
2024/01/10 13:32:54;;;;;;;29.63;19.13;;;;;;;7.02;36.99;99635.66;6741561;29;20210;-82
2024/01/10 13:36:15;;;;;;;29.90;19.40;;;;;;;6.01;39.05;99623.25;6739800;29;20234;-80
2024/01/10 13:39:37;;;;;;;30.50;19.27;;;;;;;6.89;38.03;99634.44;6740655;29;20695;-81
2024/01/10 13:43:02;;;;;;;31.87;20.97;;;;;;;6.71;38.14;99629.16;6740695;29;20209;-81
2024/01/10 13:46:23;;;;;;;30.40;19.83;;;;;;;6.05;38.90;99643.31;6738331;29;20293;-80
2024/01/10 13:49:45;;;;;;;31.17;20.50;;;;;;;6.20;38.69;99636.41;6738002;29;20230;-82
2024/01/10 13:53:06;;;;;;;29.00;18.97;;;;;;;6.07;39.25;99639.50;6738314;29;20362;-83
2024/01/10 13:56:29;;;;;;;32.00;20.67;;;;;;;6.67;38.54;99637.69;6737159;29;20256;-82
2024/01/10 13:59:55;;;;;;;29.93;19.33;;;;;;;6.56;39.05;99624.56;6740787;29;20214;-82
2024/01/10 14:03:16;;;;;;;28.90;19.33;;;;;;;6.54;39.37;99623.91;6742037;29;20209;-82
2024/01/10 14:06:38;;;;;;;28.40;18.43;;;;;;;6.21;39.01;99622.88;6737780;29;20275;-80
2024/01/10 14:09:59;;;;;;;29.07;18.63;;;;;;;6.06;39.73;99621.75;6735299;29;20350;-81
2024/01/10 14:13:23;;;;;;;31.43;19.33;;;;;;;6.43;39.38;99608.94;6735313;29;20218;-81
2024/01/10 14:16:45;;;;;;;31.23;20.17;;;;;;;5.88;40.18;99626.31;6735132;29;20260;-81
2024/01/10 14:20:08;;;;;;;28.83;19.90;;;;;;;6.51;39.32;99627.75;6736098;29;20237;-81
2024/01/10 14:23:30;;;;;;;29.53;20.03;;;;;;;6.45;39.14;99614.13;6734124;29;20221;-81
2024/01/10 14:26:51;;;;;;;31.77;20.43;;;;;;;6.77;38.53;99619.66;6733636;29;20247;-82
2024/01/10 14:30:15;;;;;;;29.07;19.17;;;;;;;6.06;40.01;99610.19;6733208;29;20257;-82
2024/01/10 14:33:38;;;;;;;33.10;21.27;;;;;;;5.94;40.34;99633.72;6733494;29;20747;-82
2024/01/10 14:36:59;;;;;;;28.77;18.47;;;;;;;6.36;39.79;99628.50;6732701;29;20233;-82
2024/01/10 14:40:23;;;;;;;31.30;20.17;;;;;;;6.12;40.17;99621.13;6734102;29;20300;-82
2024/01/10 14:43:44;;;;;;;29.13;19.50;;;;;;;6.36;39.48;99620.47;6732227;29;20208;-82
2024/01/10 14:47:06;;;;;;;28.07;18.20;;;;;;;6.34;39.80;99633.16;6732154;29;20642;-82
2024/01/10 14:50:29;;;;;;;29.30;18.27;;;;;;;6.49;39.79;99621.69;6733918;29;20245;-83
2024/01/10 14:53:51;;;;;;;32.40;19.40;;;;;;;7.09;38.58;99623.28;6742196;29;20224;-82
2024/01/10 14:57:12;;;;;;;33.13;20.87;;;;;;;7.24;38.51;99618.97;6736345;29;20240;-81
2024/01/10 15:00:34;;;;;;;30.93;19.67;;;;;;;7.26;38.48;99625.00;6736011;29;20221;-81
2024/01/10 15:03:55;;;;;;;31.80;20.03;;;;;;;7.25;38.19;99620.63;6734377;29;20584;-81
2024/01/10 15:07:18;;;;;;;32.23;19.80;;;;;;;7.26;38.29;99635.72;6734048;29;20607;-81
2024/01/10 15:10:42;;;;;;;33.00;19.67;;;;;;;7.17;38.58;99628.66;6734095;29;20237;-81
2024/01/10 15:14:04;;;;;;;34.20;21.00;;;;;;;6.74;39.89;99639.59;6734664;29;20235;-82
2024/01/10 15:17:26;;;;;;;29.77;19.37;;;;;;;6.77;39.76;99641.91;6733547;29;20243;-81
2024/01/10 15:20:48;;;;;;;30.17;19.40;;;;;;;6.47;40.28;99633.56;6733603;29;20272;-81
2024/01/10 15:24:10;;;;;;;36.20;21.47;;;;;;;6.21;40.74;99646.97;6732426;29;20217;-81
2024/01/10 15:27:32;;;;;;;32.43;21.00;;;;;;;6.52;40.34;99650.84;6731467;29;20248;-81
2024/01/10 15:30:53;;;;;;;30.60;19.73;;;;;;;6.55;40.18;99647.00;6732839;29;20264;-81
2024/01/10 15:34:15;;;;;;;29.90;19.63;;;;;;;6.47;40.31;99646.94;6733955;29;20303;-81
2024/01/10 15:37:36;;;;;;;31.37;19.63;;;;;;;6.62;40.13;99664.97;6731929;29;20371;-82
2024/01/10 15:41:01;;;;;;;32.57;20.60;;;;;;;6.00;41.61;99656.34;6733247;29;20240;-80